createdAt,value
2017-08-29T00:00:30.789Z,11.78
2017-08-29T00:01:30.715Z,11.75
2017-08-29T00:02:30.814Z,11.72
2017-08-29T00:03:30.795Z,11.73
2017-08-29T00:04:30.745Z,11.72
2017-08-29T00:05:30.806Z,11.69
2017-08-29T00:06:30.784Z,11.65
2017-08-29T00:07:30.700Z,11.60
2017-08-29T00:08:30.726Z,11.56
2017-08-29T00:09:30.922Z,11.54
2017-08-29T00:10:30.749Z,11.50
2017-08-29T00:11:30.677Z,11.47
2017-08-29T00:12:30.691Z,11.46
2017-08-29T00:13:30.718Z,11.43
2017-08-29T00:14:30.795Z,11.42
2017-08-29T00:15:30.796Z,11.45
2017-08-29T00:16:30.729Z,11.46
2017-08-29T00:17:30.828Z,11.47
2017-08-29T00:18:30.762Z,11.47
2017-08-29T00:19:30.765Z,11.47
2017-08-29T00:20:30.761Z,11.46
2017-08-29T00:21:30.795Z,11.46
2017-08-29T00:22:30.781Z,11.46
2017-08-29T00:23:30.767Z,11.45
2017-08-29T00:24:30.798Z,11.42
2017-08-29T00:25:30.800Z,11.36
2017-08-29T00:26:30.733Z,11.35
2017-08-29T00:27:30.832Z,11.33
2017-08-29T00:28:30.732Z,11.31
2017-08-29T00:29:30.773Z,11.27
2017-08-29T00:30:30.834Z,11.27
2017-08-29T00:31:30.759Z,11.28
2017-08-29T00:32:30.876Z,11.31
2017-08-29T00:33:30.810Z,11.33
2017-08-29T00:34:30.810Z,11.32
2017-08-29T00:35:30.832Z,11.31
2017-08-29T00:36:30.806Z,11.33
2017-08-29T00:37:30.827Z,11.38
2017-08-29T00:38:30.807Z,11.40
2017-08-29T00:39:30.831Z,11.39
2017-08-29T00:40:30.801Z,11.40
2017-08-29T00:41:30.769Z,11.42
2017-08-29T00:42:30.815Z,11.39
2017-08-29T00:43:30.746Z,11.38
2017-08-29T00:44:30.782Z,11.38
2017-08-29T00:45:30.816Z,11.36
2017-08-29T00:46:30.810Z,11.33
2017-08-29T00:47:30.783Z,11.33
2017-08-29T00:48:30.658Z,11.31
2017-08-29T00:49:30.735Z,11.29
2017-08-29T00:50:30.751Z,11.27
2017-08-29T00:51:30.751Z,11.27
2017-08-29T00:52:30.740Z,11.24
2017-08-29T00:53:30.715Z,11.20
2017-08-29T00:54:30.678Z,11.17
2017-08-29T00:55:30.753Z,11.14
2017-08-29T00:56:30.751Z,11.13
2017-08-29T00:57:30.756Z,11.18
2017-08-29T00:58:30.770Z,11.21
2017-08-29T00:59:30.806Z,11.28
2017-08-29T01:00:30.807Z,11.28
2017-08-29T01:01:30.812Z,11.27
2017-08-29T01:02:30.810Z,11.27
2017-08-29T01:03:30.808Z,11.35
2017-08-29T01:04:30.813Z,11.39
2017-08-29T01:05:30.749Z,11.35
2017-08-29T01:06:30.751Z,11.32
2017-08-29T01:07:30.752Z,11.28
2017-08-29T01:08:30.812Z,11.28
2017-08-29T01:09:30.779Z,11.22
2017-08-29T01:10:30.813Z,11.18
2017-08-29T01:11:30.757Z,11.17
2017-08-29T01:12:30.755Z,11.16
2017-08-29T01:13:30.821Z,11.16
2017-08-29T01:14:30.783Z,11.13
2017-08-29T01:15:30.825Z,11.14
2017-08-29T01:16:30.866Z,11.11
2017-08-29T01:17:30.759Z,11.09
2017-08-29T01:18:30.738Z,11.07
2017-08-29T01:19:30.778Z,11.10
2017-08-29T01:20:30.699Z,11.13
2017-08-29T01:21:30.778Z,11.13
2017-08-29T01:22:30.758Z,11.09
2017-08-29T01:23:30.764Z,11.05
2017-08-29T01:24:30.777Z,11.05
2017-08-29T01:25:30.779Z,11.05
2017-08-29T01:26:30.750Z,11.02
2017-08-29T01:27:30.702Z,11.02
2017-08-29T01:28:30.800Z,11.03
2017-08-29T01:29:30.809Z,11.03
2017-08-29T01:30:30.807Z,11.02
2017-08-29T01:31:30.798Z,11.02
2017-08-29T01:32:30.810Z,11.02
2017-08-29T01:33:30.807Z,11.02
2017-08-29T01:34:30.834Z,11.03
2017-08-29T01:35:30.868Z,11.05
2017-08-29T01:36:30.815Z,11.00
2017-08-29T01:37:30.829Z,11.00
2017-08-29T01:38:30.784Z,11.02
2017-08-29T01:39:30.803Z,11.02
2017-08-29T01:40:30.808Z,11.02
2017-08-29T01:41:30.808Z,10.98
2017-08-29T01:42:30.811Z,10.97
2017-08-29T01:43:30.813Z,10.95
2017-08-29T01:44:30.867Z,10.95
2017-08-29T01:45:30.777Z,10.94
2017-08-29T01:46:30.812Z,10.93
2017-08-29T01:47:30.842Z,10.91
2017-08-29T01:48:30.849Z,10.91
2017-08-29T01:49:30.836Z,10.90
2017-08-29T01:50:30.807Z,10.91
2017-08-29T01:51:30.835Z,10.94
2017-08-29T01:52:30.821Z,10.95
2017-08-29T01:53:30.782Z,10.97
2017-08-29T01:54:30.808Z,11.00
2017-08-29T01:55:30.846Z,11.00
2017-08-29T01:56:30.812Z,11.00
2017-08-29T01:57:30.818Z,11.05
2017-08-29T01:58:30.883Z,11.07
2017-08-29T01:59:30.827Z,11.07
2017-08-29T02:00:30.884Z,11.09
2017-08-29T02:01:30.842Z,11.06
2017-08-29T02:02:30.889Z,11.05
2017-08-29T02:03:30.818Z,11.02
2017-08-29T02:04:30.814Z,10.98
2017-08-29T02:05:30.878Z,11.00
2017-08-29T02:06:30.894Z,11.02
2017-08-29T02:07:30.883Z,11.03
2017-08-29T02:08:30.850Z,11.03
2017-08-29T02:09:30.864Z,11.02
2017-08-29T02:10:30.804Z,10.97
2017-08-29T02:11:30.892Z,10.94
2017-08-29T02:12:30.889Z,10.91
2017-08-29T02:13:30.863Z,10.90
2017-08-29T02:14:30.851Z,10.87
2017-08-29T02:15:30.825Z,10.84
2017-08-29T02:16:30.863Z,10.86
2017-08-29T02:17:30.831Z,10.87
2017-08-29T02:18:30.789Z,10.88
2017-08-29T02:19:30.735Z,10.87
2017-08-29T02:20:30.769Z,10.87
2017-08-29T02:21:30.774Z,10.90
2017-08-29T02:22:30.794Z,10.93
2017-08-29T02:23:30.795Z,10.95
2017-08-29T02:24:30.716Z,10.95
2017-08-29T02:25:30.735Z,10.95
2017-08-29T02:26:30.810Z,10.97
2017-08-29T02:27:30.903Z,10.95
2017-08-29T02:28:30.827Z,10.93
2017-08-29T02:29:30.862Z,10.94
2017-08-29T02:30:30.802Z,11.03
2017-08-29T02:31:30.831Z,11.02
2017-08-29T02:32:30.828Z,11.00
2017-08-29T02:33:30.800Z,10.98
2017-08-29T02:34:30.830Z,10.97
2017-08-29T02:35:30.865Z,10.95
2017-08-29T02:36:30.807Z,10.95
2017-08-29T02:37:30.866Z,10.94
2017-08-29T02:38:30.838Z,10.93
2017-08-29T02:39:30.810Z,10.90
2017-08-29T02:40:30.819Z,10.90
2017-08-29T02:41:30.837Z,10.90
2017-08-29T02:42:30.820Z,10.88
2017-08-29T02:43:30.765Z,10.84
2017-08-29T02:44:30.830Z,10.86
2017-08-29T02:45:30.818Z,10.88
2017-08-29T02:46:30.793Z,10.90
2017-08-29T02:47:30.840Z,10.94
2017-08-29T02:48:30.887Z,10.97
2017-08-29T02:49:30.851Z,11.05
2017-08-29T02:50:30.819Z,11.16
2017-08-29T02:51:30.852Z,11.28
2017-08-29T02:52:30.918Z,11.36
2017-08-29T02:53:30.827Z,11.43
2017-08-29T02:54:30.889Z,11.54
2017-08-29T02:55:30.830Z,11.57
2017-08-29T02:56:30.852Z,11.61
2017-08-29T02:57:30.886Z,11.64
2017-08-29T02:58:30.824Z,11.65
2017-08-29T02:59:30.857Z,11.68
2017-08-29T03:00:30.861Z,11.69
2017-08-29T03:01:30.862Z,11.72
2017-08-29T03:02:30.828Z,11.73
2017-08-29T03:03:30.883Z,11.73
2017-08-29T03:04:30.857Z,11.75
2017-08-29T03:05:30.853Z,11.75
2017-08-29T03:06:30.830Z,11.75
2017-08-29T03:07:30.920Z,11.76
2017-08-29T03:08:30.882Z,11.78
2017-08-29T03:09:30.867Z,11.76
2017-08-29T03:10:30.923Z,11.76
2017-08-29T03:11:30.868Z,11.79
2017-08-29T03:12:30.837Z,11.82
2017-08-29T03:13:30.862Z,11.82
2017-08-29T03:14:30.870Z,11.83
2017-08-29T03:15:30.931Z,11.87
2017-08-29T03:16:30.870Z,11.94
2017-08-29T03:17:30.907Z,11.95
2017-08-29T03:18:30.861Z,11.95
2017-08-29T03:19:30.929Z,11.95
2017-08-29T03:20:30.873Z,11.95
2017-08-29T03:21:30.904Z,11.94
2017-08-29T03:22:30.833Z,11.92
2017-08-29T03:23:30.908Z,11.91
2017-08-29T03:24:30.789Z,11.91
2017-08-29T03:25:30.729Z,11.91
2017-08-29T03:26:30.782Z,11.91
2017-08-29T03:27:30.790Z,11.87
2017-08-29T03:28:30.791Z,11.86
2017-08-29T03:30:30.790Z,11.86
2017-08-29T03:31:30.789Z,11.87
2017-08-29T03:32:30.791Z,11.87
2017-08-29T03:33:30.797Z,11.87
2017-08-29T03:34:30.808Z,11.87
2017-08-29T03:35:30.824Z,11.89
2017-08-29T03:36:30.839Z,11.87
2017-08-29T03:37:30.912Z,11.95
2017-08-29T03:38:30.849Z,11.98
2017-08-29T03:39:30.845Z,11.95
2017-08-29T03:40:30.829Z,11.94
2017-08-29T03:41:30.823Z,11.91
2017-08-29T03:42:30.867Z,11.86
2017-08-29T03:43:30.871Z,11.89
2017-08-29T03:44:30.947Z,11.92
2017-08-29T03:45:30.916Z,11.91
2017-08-29T03:46:30.946Z,11.92
2017-08-29T03:47:30.919Z,11.89
2017-08-29T03:48:30.886Z,11.89
2017-08-29T03:49:30.854Z,11.91
2017-08-29T03:50:30.852Z,11.89
2017-08-29T03:51:30.860Z,11.86
2017-08-29T03:52:30.948Z,11.84
2017-08-29T03:53:30.946Z,11.84
2017-08-29T03:54:30.834Z,11.87
2017-08-29T03:55:30.884Z,11.87
2017-08-29T03:56:30.884Z,11.83
2017-08-29T03:57:30.855Z,11.83
2017-08-29T03:58:30.869Z,11.83
2017-08-29T03:59:30.867Z,11.83
2017-08-29T04:00:30.923Z,11.83
2017-08-29T04:01:30.882Z,11.84
2017-08-29T04:02:30.881Z,11.86
2017-08-29T04:03:30.890Z,11.87
2017-08-29T04:04:30.916Z,11.89
2017-08-29T04:05:30.861Z,11.89
2017-08-29T04:06:30.920Z,11.89
2017-08-29T04:07:30.859Z,11.91
2017-08-29T04:08:30.887Z,11.89
2017-08-29T04:09:30.887Z,11.91
2017-08-29T04:10:30.860Z,11.92
2017-08-29T04:11:30.889Z,11.94
2017-08-29T04:12:30.861Z,11.92
2017-08-29T04:13:30.929Z,11.92
2017-08-29T04:14:30.901Z,11.92
2017-08-29T04:16:30.867Z,11.89
2017-08-29T04:17:30.971Z,11.92
2017-08-29T04:18:30.900Z,11.89
2017-08-29T04:19:30.925Z,11.89
2017-08-29T04:20:30.896Z,11.86
2017-08-29T04:21:30.875Z,11.84
2017-08-29T04:22:30.960Z,11.83
2017-08-29T04:23:30.874Z,11.80
2017-08-29T04:24:30.928Z,11.78
2017-08-29T04:25:30.971Z,11.76
2017-08-29T04:26:30.905Z,11.75
2017-08-29T04:27:30.964Z,11.72
2017-08-29T04:28:30.907Z,11.69
2017-08-29T04:29:30.973Z,11.69
2017-08-29T04:30:30.974Z,11.72
2017-08-29T04:31:30.905Z,11.72
2017-08-29T04:32:30.900Z,11.69
2017-08-29T04:33:30.885Z,11.67
2017-08-29T04:34:30.934Z,11.69
2017-08-29T04:35:30.979Z,11.69
2017-08-29T04:36:30.957Z,11.67
2017-08-29T04:37:30.919Z,11.69
2017-08-29T04:38:30.905Z,11.71
2017-08-29T04:39:30.975Z,11.71
2017-08-29T04:40:30.957Z,11.69
2017-08-29T04:41:30.957Z,11.68
2017-08-29T04:42:30.891Z,11.65
2017-08-29T04:43:30.990Z,11.64
2017-08-29T04:44:30.905Z,11.64
2017-08-29T04:45:30.970Z,11.62
2017-08-29T04:46:30.974Z,11.62
2017-08-29T04:47:30.984Z,11.64
2017-08-29T04:48:30.960Z,11.65
2017-08-29T04:49:30.920Z,11.62
2017-08-29T04:50:30.984Z,11.68
2017-08-29T04:51:30.916Z,11.72
2017-08-29T04:52:30.894Z,11.72
2017-08-29T04:53:30.910Z,11.72
2017-08-29T04:54:30.843Z,11.72
2017-08-29T04:55:30.915Z,11.71
2017-08-29T04:56:30.889Z,11.71
2017-08-29T04:57:30.887Z,11.71
2017-08-29T04:58:30.860Z,11.71
2017-08-29T04:59:30.917Z,11.82
2017-08-29T05:00:30.850Z,11.86
2017-08-29T05:01:30.920Z,11.86
2017-08-29T05:02:30.861Z,11.91
2017-08-29T05:03:31.084Z,11.91
2017-08-29T05:04:31.113Z,11.92
2017-08-29T05:05:31.061Z,11.92
2017-08-29T05:06:30.962Z,11.94
2017-08-29T05:07:31.032Z,11.94
2017-08-29T05:08:30.936Z,11.97
2017-08-29T05:09:31.002Z,11.99
2017-08-29T05:10:30.899Z,12.01
2017-08-29T05:11:31.088Z,12.03
2017-08-29T05:12:30.977Z,12.06
2017-08-29T05:13:30.927Z,12.10
2017-08-29T05:14:30.976Z,12.09
2017-08-29T05:15:30.878Z,12.13
2017-08-29T05:16:30.874Z,12.13
2017-08-29T05:17:30.929Z,12.14
2017-08-29T05:18:30.904Z,12.13
2017-08-29T05:19:30.925Z,12.16
2017-08-29T05:20:30.906Z,12.18
2017-08-29T05:21:30.909Z,12.18
2017-08-29T05:22:30.884Z,12.20
2017-08-29T05:23:30.931Z,12.22
2017-08-29T05:24:30.926Z,12.22
2017-08-29T05:25:30.902Z,12.24
2017-08-29T05:26:30.963Z,12.25
2017-08-29T05:27:30.904Z,12.25
2017-08-29T05:28:30.905Z,12.26
2017-08-29T05:29:30.937Z,12.28
2017-08-29T05:30:30.931Z,12.29
2017-08-29T05:31:30.933Z,12.33
2017-08-29T05:32:30.967Z,12.35
2017-08-29T05:33:30.963Z,12.39
2017-08-29T05:34:30.864Z,12.42
2017-08-29T05:35:30.913Z,12.46
2017-08-29T05:36:30.975Z,12.48
2017-08-29T05:37:30.922Z,12.53
2017-08-29T05:38:30.911Z,12.54
2017-08-29T05:39:30.982Z,12.57
2017-08-29T05:40:30.938Z,12.58
2017-08-29T05:41:30.943Z,12.64
2017-08-29T05:42:30.920Z,12.65
2017-08-29T05:43:30.932Z,12.69
2017-08-29T05:44:30.953Z,12.72
2017-08-29T05:45:31.008Z,12.76
2017-08-29T05:46:30.923Z,12.79
2017-08-29T05:47:30.960Z,12.87
2017-08-29T05:48:30.960Z,12.94
2017-08-29T05:49:30.925Z,12.96
2017-08-29T05:50:30.963Z,13.02
2017-08-29T05:51:30.963Z,13.10
2017-08-29T05:52:30.992Z,13.20
2017-08-29T05:53:31.014Z,13.28
2017-08-29T05:54:30.984Z,13.38
2017-08-29T05:55:30.950Z,13.47
2017-08-29T05:56:30.947Z,13.57
2017-08-29T05:57:30.947Z,13.68
2017-08-29T05:58:30.917Z,13.76
2017-08-29T05:59:30.919Z,13.88
2017-08-29T06:00:30.949Z,13.99
2017-08-29T06:01:30.954Z,14.02
2017-08-29T06:02:30.929Z,14.10
2017-08-29T06:03:30.950Z,14.14
2017-08-29T06:04:30.984Z,14.17
2017-08-29T06:05:31.028Z,14.22
2017-08-29T06:06:30.934Z,14.25
2017-08-29T06:07:30.974Z,14.32
2017-08-29T06:08:30.936Z,14.40
2017-08-29T06:09:31.003Z,14.44
2017-08-29T06:10:30.996Z,14.50
2017-08-29T06:11:30.991Z,14.61
2017-08-29T06:12:30.966Z,14.65
2017-08-29T06:13:31.025Z,14.69
2017-08-29T06:14:30.977Z,14.73
2017-08-29T06:15:30.956Z,14.76
2017-08-29T06:16:30.989Z,14.82
2017-08-29T06:18:30.994Z,14.92
2017-08-29T06:19:30.963Z,14.86
2017-08-29T06:20:30.997Z,14.96
2017-08-29T06:21:30.932Z,14.96
2017-08-29T06:22:30.961Z,15.03
2017-08-29T06:23:31.019Z,15.07
2017-08-29T06:24:30.962Z,15.13
2017-08-29T06:25:31.036Z,15.17
2017-08-29T06:26:30.970Z,15.18
2017-08-29T06:27:30.975Z,15.18
2017-08-29T06:28:30.943Z,15.29
2017-08-29T06:29:30.973Z,15.36
2017-08-29T06:30:30.947Z,15.42
2017-08-29T06:31:30.970Z,15.44
2017-08-29T06:32:30.946Z,15.54
2017-08-29T06:33:30.985Z,15.68
2017-08-29T06:34:31.048Z,15.69
2017-08-29T06:35:30.950Z,15.77
2017-08-29T06:36:30.915Z,15.88
2017-08-29T06:37:30.964Z,15.95
2017-08-29T06:38:30.888Z,15.97
2017-08-29T06:39:30.929Z,16.06
2017-08-29T06:40:30.929Z,16.07
2017-08-29T06:41:30.937Z,16.03
2017-08-29T06:42:30.887Z,16.11
2017-08-29T06:43:30.932Z,16.17
2017-08-29T06:44:30.935Z,16.25
2017-08-29T06:45:30.906Z,16.31
2017-08-29T06:46:30.952Z,16.29
2017-08-29T06:47:30.976Z,16.38
2017-08-29T06:48:30.977Z,16.57
2017-08-29T06:49:30.953Z,16.66
2017-08-29T06:50:30.976Z,16.79
2017-08-29T06:51:30.977Z,16.84
2017-08-29T06:52:30.910Z,16.94
2017-08-29T06:53:31.027Z,16.91
2017-08-29T06:54:30.940Z,17.03
2017-08-29T06:55:30.909Z,17.12
2017-08-29T06:56:30.905Z,17.22
2017-08-29T06:57:30.898Z,17.31
2017-08-29T06:58:30.860Z,17.43
2017-08-29T06:59:30.872Z,17.43
2017-08-29T07:00:30.867Z,17.43
2017-08-29T07:01:30.850Z,17.40
2017-08-29T07:02:30.902Z,17.47
2017-08-29T07:03:30.903Z,17.66
2017-08-29T07:04:31.019Z,17.75
2017-08-29T07:05:31.203Z,17.91
2017-08-29T07:06:31.000Z,17.99
2017-08-29T07:07:30.973Z,18.09
2017-08-29T07:08:31.042Z,18.24
2017-08-29T07:09:30.971Z,18.24
2017-08-29T07:10:31.029Z,18.23
2017-08-29T07:11:30.997Z,18.18
2017-08-29T07:12:31.065Z,18.17
2017-08-29T07:13:31.006Z,18.21
2017-08-29T07:14:31.045Z,18.35
2017-08-29T07:15:31.070Z,18.46
2017-08-29T07:16:30.973Z,18.58
2017-08-29T07:18:30.971Z,18.79
2017-08-29T07:19:31.056Z,18.92
2017-08-29T07:20:31.003Z,18.98
2017-08-29T07:21:31.005Z,19.09
2017-08-29T07:22:31.072Z,19.02
2017-08-29T07:23:30.981Z,19.05
2017-08-29T07:24:30.949Z,19.21
2017-08-29T07:25:31.049Z,19.21
2017-08-29T07:26:31.073Z,19.19
2017-08-29T07:27:30.953Z,19.27
2017-08-29T07:28:30.988Z,19.35
2017-08-29T07:29:30.990Z,19.33
2017-08-29T07:30:30.994Z,19.32
2017-08-29T07:31:31.001Z,19.38
2017-08-29T07:32:31.015Z,19.46
2017-08-29T07:33:30.980Z,19.44
2017-08-29T07:34:30.986Z,19.46
2017-08-29T07:35:31.016Z,19.51
2017-08-29T07:36:31.123Z,19.58
2017-08-29T07:37:31.085Z,19.62
2017-08-29T07:38:31.076Z,19.65
2017-08-29T07:39:31.115Z,19.68
2017-08-29T07:40:31.187Z,19.72
2017-08-29T07:41:31.127Z,19.58
2017-08-29T07:42:31.018Z,19.50
2017-08-29T07:43:31.156Z,19.49
2017-08-29T07:44:31.013Z,19.44
2017-08-29T07:45:31.198Z,19.47
2017-08-29T07:46:31.197Z,19.61
2017-08-29T07:47:31.120Z,19.62
2017-08-29T07:48:31.200Z,19.66
2017-08-29T07:49:31.053Z,19.72
2017-08-29T07:50:31.141Z,19.84
2017-08-29T07:51:31.022Z,19.92
2017-08-29T07:52:31.124Z,19.98
2017-08-29T07:53:31.188Z,20.12
2017-08-29T07:54:31.179Z,20.24
2017-08-29T07:55:31.147Z,20.25
2017-08-29T07:56:30.996Z,20.27
2017-08-29T07:57:31.088Z,20.30
2017-08-29T07:58:31.032Z,20.30
2017-08-29T07:59:31.063Z,20.25
2017-08-29T08:00:31.001Z,20.35
2017-08-29T08:01:31.007Z,20.46
2017-08-29T08:02:31.004Z,20.54
2017-08-29T08:03:31.064Z,20.53
2017-08-29T08:05:31.061Z,20.54
2017-08-29T08:06:31.026Z,20.43
2017-08-29T08:07:31.066Z,20.52
2017-08-29T08:08:31.058Z,20.68
2017-08-29T08:09:30.995Z,20.80
2017-08-29T08:10:31.027Z,20.86
2017-08-29T08:11:31.000Z,20.91
2017-08-29T08:12:31.028Z,21.09
2017-08-29T08:13:30.996Z,21.13
2017-08-29T08:14:31.046Z,21.21
2017-08-29T08:15:31.079Z,21.02
2017-08-29T08:16:31.013Z,21.02
2017-08-29T08:17:31.066Z,21.14
2017-08-29T08:18:31.013Z,21.22
2017-08-29T08:19:31.045Z,21.32
2017-08-29T08:20:31.051Z,21.51
2017-08-29T08:21:31.036Z,21.67
2017-08-29T08:22:31.098Z,21.84
2017-08-29T08:23:31.047Z,21.71
2017-08-29T08:24:31.034Z,21.54
2017-08-29T08:25:31.011Z,21.54
2017-08-29T08:26:30.980Z,21.54
2017-08-29T08:27:30.955Z,21.71
2017-08-29T08:28:31.028Z,21.78
2017-08-29T08:29:31.029Z,21.90
2017-08-29T08:30:31.028Z,22.08
2017-08-29T08:31:31.029Z,22.19
2017-08-29T08:32:31.037Z,22.36
2017-08-29T08:33:31.001Z,22.52
2017-08-29T08:34:31.087Z,22.76
2017-08-29T08:35:31.074Z,22.80
2017-08-29T08:36:31.121Z,22.90
2017-08-29T08:37:31.120Z,22.83
2017-08-29T08:38:31.027Z,22.77
2017-08-29T08:39:31.055Z,22.61
2017-08-29T08:40:31.059Z,22.72
2017-08-29T08:41:31.113Z,22.63
2017-08-29T08:42:31.051Z,22.70
2017-08-29T08:43:31.116Z,22.93
2017-08-29T08:44:31.062Z,23.08
2017-08-29T08:45:31.053Z,23.06
2017-08-29T08:46:31.067Z,22.95
2017-08-29T08:47:31.095Z,22.94
2017-08-29T08:48:31.112Z,23.00
2017-08-29T08:49:31.036Z,23.20
2017-08-29T08:50:31.146Z,23.27
2017-08-29T08:51:31.035Z,23.41
2017-08-29T08:52:31.032Z,23.38
2017-08-29T08:53:31.062Z,23.24
2017-08-29T08:54:31.085Z,23.35
2017-08-29T08:55:31.123Z,23.26
2017-08-29T08:56:31.104Z,23.33
2017-08-29T08:57:31.038Z,23.33
2017-08-29T08:58:31.093Z,23.56
2017-08-29T08:59:31.039Z,23.69
2017-08-29T09:00:31.073Z,23.72
2017-08-29T09:01:31.068Z,23.78
2017-08-29T09:02:31.124Z,23.85
2017-08-29T09:03:31.127Z,23.76
2017-08-29T09:04:31.034Z,23.65
2017-08-29T09:05:31.092Z,23.60
2017-08-29T09:06:31.102Z,23.72
2017-08-29T09:07:31.045Z,23.44
2017-08-29T09:08:31.101Z,23.50
2017-08-29T09:09:31.093Z,23.42
2017-08-29T09:10:31.048Z,23.56
2017-08-29T09:11:31.065Z,23.82
2017-08-29T09:12:31.066Z,23.98
2017-08-29T09:13:31.044Z,24.07
2017-08-29T09:14:31.111Z,24.30
2017-08-29T09:15:31.137Z,24.63
2017-08-29T09:16:31.081Z,24.81
2017-08-29T09:17:31.078Z,24.86
2017-08-29T09:18:31.048Z,25.01
2017-08-29T09:19:31.045Z,25.05
2017-08-29T09:20:31.120Z,25.12
2017-08-29T09:21:31.084Z,25.29
2017-08-29T09:22:31.142Z,25.34
2017-08-29T09:23:31.112Z,25.45
2017-08-29T09:24:31.086Z,25.49
2017-08-29T09:25:31.095Z,25.38
2017-08-29T09:26:31.062Z,25.53
2017-08-29T09:27:31.046Z,25.34
2017-08-29T09:28:30.986Z,25.37
2017-08-29T09:29:31.049Z,25.29
2017-08-29T09:30:31.013Z,25.00
2017-08-29T09:31:30.993Z,24.94
2017-08-29T09:32:31.063Z,24.97
2017-08-29T09:33:31.060Z,25.02
2017-08-29T09:34:31.035Z,24.90
2017-08-29T09:35:31.127Z,24.89
2017-08-29T09:36:31.079Z,24.94
2017-08-29T09:37:31.075Z,25.02
2017-08-29T09:38:31.081Z,25.16
2017-08-29T09:39:31.078Z,25.38
2017-08-29T09:40:31.055Z,25.56
2017-08-29T09:41:31.075Z,25.73
2017-08-29T09:42:31.064Z,25.93
2017-08-29T09:43:31.107Z,26.07
2017-08-29T09:44:31.064Z,26.18
2017-08-29T09:45:31.085Z,26.19
2017-08-29T09:46:31.061Z,25.96
2017-08-29T09:47:31.061Z,26.08
2017-08-29T09:48:31.060Z,26.36
2017-08-29T09:49:31.063Z,26.44
2017-08-29T09:50:31.059Z,26.44
2017-08-29T09:51:31.077Z,26.56
2017-08-29T09:52:31.035Z,26.68
2017-08-29T09:53:31.062Z,26.55
2017-08-29T09:54:31.130Z,26.41
2017-08-29T09:55:31.121Z,26.51
2017-08-29T09:56:31.101Z,26.26
2017-08-29T09:57:31.123Z,26.34
2017-08-29T09:58:31.127Z,26.52
2017-08-29T09:59:31.095Z,26.72
2017-08-29T10:00:31.091Z,26.51
2017-08-29T10:01:31.141Z,26.40
2017-08-29T10:02:31.060Z,26.13
2017-08-29T10:03:31.126Z,26.08
2017-08-29T10:04:31.135Z,26.21
2017-08-29T10:05:31.031Z,26.33
2017-08-29T10:06:31.039Z,26.33
2017-08-29T10:07:31.068Z,26.41
2017-08-29T10:08:31.066Z,26.44
2017-08-29T10:09:31.069Z,26.40
2017-08-29T10:10:31.065Z,26.33
2017-08-29T10:11:31.068Z,26.58
2017-08-29T10:12:31.080Z,26.68
2017-08-29T10:13:31.080Z,26.72
2017-08-29T10:14:31.037Z,26.66
2017-08-29T10:15:31.143Z,26.59
2017-08-29T10:16:31.085Z,26.82
2017-08-29T10:17:31.173Z,26.96
2017-08-29T10:18:31.176Z,27.10
2017-08-29T10:19:31.082Z,27.22
2017-08-29T10:20:31.080Z,27.40
2017-08-29T10:21:31.079Z,27.15
2017-08-29T10:22:31.121Z,27.30
2017-08-29T10:23:31.139Z,27.41
2017-08-29T10:24:31.144Z,27.65
2017-08-29T10:25:31.123Z,27.68
2017-08-29T10:26:31.121Z,27.86
2017-08-29T10:27:31.090Z,27.71
2017-08-29T10:28:31.083Z,27.85
2017-08-29T10:29:31.155Z,28.02
2017-08-29T10:30:31.091Z,28.00
2017-08-29T10:31:31.182Z,27.93
2017-08-29T10:32:31.179Z,28.17
2017-08-29T10:33:31.182Z,28.35
2017-08-29T10:35:31.080Z,28.51
2017-08-29T10:36:31.086Z,28.58
2017-08-29T10:37:31.153Z,28.55
2017-08-29T10:38:31.146Z,28.69
2017-08-29T10:39:31.113Z,28.80
2017-08-29T10:40:31.084Z,29.04
2017-08-29T10:41:31.088Z,28.83
2017-08-29T10:42:31.087Z,28.86
2017-08-29T10:43:31.119Z,28.77
2017-08-29T10:44:31.087Z,28.69
2017-08-29T10:45:31.138Z,28.87
2017-08-29T10:46:31.133Z,29.02
2017-08-29T10:47:31.122Z,29.06
2017-08-29T10:48:31.130Z,29.14
2017-08-29T10:49:31.140Z,29.21
2017-08-29T10:50:31.127Z,29.05
2017-08-29T10:51:31.168Z,28.84
2017-08-29T10:52:31.101Z,28.87
2017-08-29T10:53:31.108Z,28.72
2017-08-29T10:54:31.188Z,28.53
2017-08-29T10:55:31.092Z,28.72
2017-08-29T10:56:31.098Z,28.95
2017-08-29T10:57:31.162Z,29.08
2017-08-29T10:58:31.179Z,29.16
2017-08-29T10:59:31.129Z,29.50
2017-08-29T11:00:31.095Z,29.76
2017-08-29T11:01:31.157Z,29.92
2017-08-29T11:02:31.163Z,29.87
2017-08-29T11:03:31.128Z,29.86
2017-08-29T11:04:31.166Z,29.37
2017-08-29T11:05:31.184Z,28.91
2017-08-29T11:06:31.174Z,28.72
2017-08-29T11:07:31.116Z,28.71
2017-08-29T11:08:31.198Z,28.82
2017-08-29T11:09:31.137Z,29.04
2017-08-29T11:10:31.173Z,29.20
2017-08-29T11:11:31.114Z,29.54
2017-08-29T11:12:31.198Z,29.79
2017-08-29T11:13:31.173Z,30.03
2017-08-29T11:14:31.137Z,30.05
2017-08-29T11:15:31.190Z,29.75
2017-08-29T11:16:31.168Z,29.51
2017-08-29T11:17:31.108Z,29.37
2017-08-29T11:18:31.103Z,29.21
2017-08-29T11:19:31.142Z,29.17
2017-08-29T11:20:31.139Z,29.32
2017-08-29T11:21:31.172Z,29.43
2017-08-29T11:22:31.113Z,29.68
2017-08-29T11:23:31.136Z,29.75
2017-08-29T11:24:31.139Z,29.79
2017-08-29T11:25:31.157Z,29.84
2017-08-29T11:26:31.209Z,29.65
2017-08-29T11:27:31.122Z,29.76
2017-08-29T11:28:31.136Z,29.76
2017-08-29T11:29:31.157Z,29.69
2017-08-29T11:30:31.134Z,29.69
2017-08-29T11:31:31.125Z,29.17
2017-08-29T11:32:31.223Z,29.01
2017-08-29T11:33:31.212Z,29.17
2017-08-29T11:34:31.125Z,29.27
2017-08-29T11:35:31.151Z,29.57
2017-08-29T11:36:31.340Z,29.83
2017-08-29T11:37:31.121Z,29.97
2017-08-29T11:38:31.184Z,29.97
2017-08-29T11:39:31.184Z,29.86
2017-08-29T11:40:31.159Z,29.91
2017-08-29T11:41:31.146Z,30.05
2017-08-29T11:42:31.122Z,30.02
2017-08-29T11:43:31.152Z,29.97
2017-08-29T11:44:31.126Z,29.91
2017-08-29T11:45:31.157Z,30.09
2017-08-29T11:46:31.157Z,30.21
2017-08-29T11:47:31.157Z,30.37
2017-08-29T11:48:31.163Z,30.31
2017-08-29T11:49:31.157Z,30.12
2017-08-29T11:50:31.132Z,30.05
2017-08-29T11:51:31.129Z,29.97
2017-08-29T11:52:31.199Z,30.03
2017-08-29T11:53:31.192Z,30.09
2017-08-29T11:54:31.132Z,29.99
2017-08-29T11:55:31.172Z,30.02
2017-08-29T11:56:31.139Z,30.09
2017-08-29T11:57:31.216Z,29.91
2017-08-29T11:58:31.143Z,29.95
2017-08-29T11:59:31.213Z,29.99
2017-08-29T12:00:31.142Z,30.20
2017-08-29T12:01:31.181Z,30.31
2017-08-29T12:02:31.270Z,30.39
2017-08-29T12:03:31.238Z,30.60
2017-08-29T12:04:31.166Z,30.68
2017-08-29T12:05:31.214Z,30.90
2017-08-29T12:06:31.180Z,31.09
2017-08-29T12:07:31.146Z,31.24
2017-08-29T12:08:31.147Z,31.42
2017-08-29T12:09:31.187Z,31.44
2017-08-29T12:10:31.247Z,31.57
2017-08-29T12:11:31.184Z,31.45
2017-08-29T12:12:31.152Z,31.27
2017-08-29T12:13:31.182Z,31.05
2017-08-29T12:14:31.157Z,31.05
2017-08-29T12:15:31.179Z,31.11
2017-08-29T12:16:31.191Z,30.66
2017-08-29T12:17:31.248Z,30.43
2017-08-29T12:18:31.191Z,30.42
2017-08-29T12:19:31.244Z,30.32
2017-08-29T12:20:31.186Z,30.28
2017-08-29T12:21:31.180Z,30.50
2017-08-29T12:22:31.226Z,30.60
2017-08-29T12:23:31.247Z,30.86
2017-08-29T12:24:31.244Z,30.71
2017-08-29T12:25:31.186Z,30.68
2017-08-29T12:26:31.163Z,30.62
2017-08-29T12:27:31.189Z,30.72
2017-08-29T12:28:31.158Z,30.71
2017-08-29T12:29:31.186Z,30.57
2017-08-29T12:30:31.249Z,30.42
2017-08-29T12:31:31.181Z,30.57
2017-08-29T12:32:31.292Z,30.79
2017-08-29T12:33:31.166Z,30.78
2017-08-29T12:34:31.224Z,30.78
2017-08-29T12:35:31.187Z,30.95
2017-08-29T12:36:31.187Z,30.82
2017-08-29T12:37:31.159Z,30.78
2017-08-29T12:38:31.217Z,30.79
2017-08-29T12:39:31.225Z,30.87
2017-08-29T12:40:31.161Z,30.80
2017-08-29T12:41:31.136Z,30.72
2017-08-29T12:42:31.189Z,30.79
2017-08-29T12:43:31.164Z,30.78
2017-08-29T12:44:31.230Z,30.82
2017-08-29T12:45:31.181Z,31.05
2017-08-29T12:46:31.159Z,31.27
2017-08-29T12:47:31.221Z,31.55
2017-08-29T12:48:31.226Z,31.34
2017-08-29T12:49:31.192Z,30.97
2017-08-29T12:50:31.192Z,31.05
2017-08-29T12:51:31.165Z,31.05
2017-08-29T12:52:31.193Z,31.16
2017-08-29T12:53:31.161Z,31.24
2017-08-29T12:54:31.194Z,31.13
2017-08-29T12:55:31.195Z,30.84
2017-08-29T12:56:31.170Z,30.50
2017-08-29T12:57:31.199Z,30.31
2017-08-29T12:58:31.170Z,30.17